Pagina principale
METAR-TAF:

METAR-TAF

Aeroporti :

Aeroporto Internazionale di Riga

Riga, Lettonia

latitudine: 56-55N, longitudine: 023-58E, altezza: 10 m

Osservazione

Il bollettino è stato emesso 19 minuti fa, alle 11:50 UTC
Vento 8 kt da sud
Temperature -2°C
Umidità 93%
Pressione 1024 hPa
Visibilità 10 km o più
Cielo coperto ad un'altezza di 900 ft

METAR: EVRA 171150Z 17008KT 9999 OVC009 M02/M03 Q1024 R18/490295 NOSIG

Ora: 14:09 (12:09 UTC)

Previsione

Il bollettino è stato emesso 1 ora e 8 minuti fa, alle 11:01 UTC
Previsione valida dal 17 alle 12 UTC al 18 alle 12 UTC
Vento 7 kt da sud/sud-est
Visibilità: 8000 m
Cielo coperto ad un'altezza di 800 ft
Temporaneamente
dal 17 alle 12 UTC al 17 alle 18 UTC
Visibilità: 3000 m
neve
Temporaneamente
dal 17 alle 18 UTC al 18 alle 09 UTC
Visibilità: 3000 m
Nuvoloso ad un'altezza di 400 ft
foschia

TAF: EVRA 171101Z 1712/1812 15007KT 8000 OVC008 TEMPO 1712/1718 3000 SN TEMPO 1718/1809 3000 BR BKN004

Osservazioni e previsioni meteorologiche di più di 4000 aeroporti (messaggi METAR e TAF).

Le stazioni disponibili sono rappresentate dai dischi gialli e rossi sulla carta.

Puntare il mouse per vedere il nome della stazione.

Clicca sopra per visualizzare le osservazioni e previsioni meteorologiche.

Per cambiare la mappa : fare clic sui pulsanti verdi con una croce nera per ingrandire, il pulsante verde con un trattino per diminuire, o sulla freccia verde per le mappe adiacenti.


METAR-TAF: